Latest Weather Observations for Tunnack

IDT60801

Issued at 7:02 pm EDT Sunday 22 January 2017 (issued every 30 minutes, with the page automatically refreshed every 10 minutes)

About weather observations | Map of weather stations | Latest weather observations for TAS | Other Formats
Station Details ID: 094195 Name: TUNNACK FIRE STATION Lat: -42.45 Lon: 147.46 Height: 461.5 m
Data from the previous 72 hours. | See also: Recent months at Tunnack
Date/Time
EDT
Temp
°C
App
Temp
°C
Dew
Point
°C
Rel
Hum
%
Delta-T
°C
Wind Press
QNH
hPa
Press
MSL
hPa
Rain since
9am
mm
Dir  Spd
km/h
Gust
km/h
Spd
kts
Gust
kts
22/07:00pm 21.6 19.8 12.2 55 5.4 SSW 13 19 7 10 1012.1 1011.2 0.0
22/06:30pm 22.9 20.7 12.2 51 6.2 SE 15 20 8 11 1012.0 1011.1 0.0
22/06:00pm 24.2 21.7 11.2 44 7.5 SSW 15 20 8 11 1011.6 1010.7 0.0
22/05:30pm 25.3 22.4 11.1 41 8.2 SW 17 24 9 13 1011.6 1010.7 0.0
22/05:00pm 26.6 23.7 11.1 38 9.0 WSW 17 24 9 13 1011.7 1010.8 0.0
22/04:30pm 26.6 23.0 10.7 37 9.1 WNW 20 35 11 19 1011.9 1011.0 0.0
22/04:00pm 26.9 24.0 11.0 37 9.2 W 17 28 9 15 1012.0 1011.1 0.0
22/03:30pm 26.5 23.0 10.2 36 9.3 WNW 19 28 10 15 1012.2 1011.3 0.0
22/03:00pm 26.7 24.0 11.6 39 8.8 NW 17 30 9 16 1012.3 1011.4 0.0
22/02:30pm 24.0 20.7 9.6 40 8.0 N 17 24 9 13 1012.6 1011.6 0.0
22/02:00pm 24.7 21.0 10.2 40 8.2 NNE 20 30 11 16 1012.8 1011.8 0.0
22/01:30pm 23.6 20.6 9.2 40 7.9 NNW 15 22 8 12 1013.1 1012.2 0.0
22/01:00pm 23.3 20.9 10.0 43 7.4 N 13 22 7 12 1013.2 1012.3 0.0
22/12:30pm 23.3 20.9 10.0 43 7.4 N 13 20 7 11 1013.6 1012.7 0.0
22/12:00pm 21.7 19.1 9.3 45 6.8 N 13 22 7 12 1013.7 1012.8 0.0
22/11:30am 20.7 17.3 9.0 47 6.3 N 17 28 9 15 1013.8 1012.9 0.0
22/11:00am 19.7 16.3 9.3 51 5.6 N 17 24 9 13 1014.0 1013.1 0.0
22/10:30am 19.2 15.9 9.7 54 5.2 NNE 17 22 9 12 1014.2 1013.3 0.0
22/10:00am 17.7 15.4 9.1 57 4.6 N 11 20 6 11 1014.5 1013.6 0.0
22/09:30am 16.9 13.7 8.3 57 4.5 NNE 15 20 8 11 1014.8 1013.9 0.0
22/09:00am 15.2 11.5 6.2 55 4.5 N 15 20 8 11 1015.1 1014.2 0.0
22/08:30am 14.8 11.4 6.1 56 4.3 NNW 13 19 7 10 1015.2 1014.3 0.0
22/08:00am 12.4 10.0 7.1 70 2.6 NNW 9 15 5 8 1015.1 1014.2 0.0
22/07:30am 10.4 8.7 7.5 82 1.4 NNE 6 9 3 5 1015.0 1014.1 0.0
22/07:00am 8.8 6.6 6.4 85 1.1 NNE 7 9 4 5 1015.0 1014.1 0.0
22/06:30am 6.2 4.3 5.0 92 0.5 NE 4 7 2 4 1014.9 1014.0 0.0
22/06:00am 6.7 5.3 5.3 91 0.6 N 2 7 1 4 1014.8 1013.9 0.0
22/05:30am 6.4 5.3 5.0 91 0.6 CALM 0 7 0 4 1014.4 1013.5 0.0
22/05:00am 6.2 4.9 4.2 87 0.9 CALM 0 4 0 2 1014.1 1013.2 0.0
22/04:30am 8.8 5.4 5.9 82 1.4 WNW 13 15 7 8 1013.8 1012.9 0.0
22/04:00am 8.3 4.8 5.6 83 1.3 WNW 13 19 7 10 1013.7 1012.8 0.0
22/03:30am 7.0 5.2 5.5 90 0.7 WSW 4 11 2 6 1013.9 1013.0 0.0
22/03:00am 7.4 6.0 5.7 89 0.8 W 2 7 1 4 1014.2 1013.3 0.0
22/02:30am 8.9 6.7 6.0 82 1.4 WNW 7 11 4 6 1014.4 1013.5 0.0
22/02:00am 9.1 6.2 6.4 83 1.3 NNW 11 15 6 8 1014.5 1013.6 0.0
22/01:30am 9.1 6.7 7.1 87 1.0 N 9 11 5 6 1014.7 1013.7 0.0
22/01:00am 9.0 6.8 6.4 84 1.2 NW 7 15 4 8 1014.9 1014.0 0.0
22/12:30am 10.1 8.0 6.6 79 1.7 NNW 7 13 4 7 1014.9 1014.0 0.0
22/12:00am 11.4 8.7 7.3 76 2.0 SW 11 15 6 8 1015.1 1014.2 0.0
 
Date/Time
EDT
Temp
°C
App
Temp
°C
Dew
Point
°C
Rel
Hum
%
Delta-T
°C
Wind Press
QNH
hPa
Press
MSL
hPa
Rain since
9am
mm
Dir  Spd
km/h
Gust
km/h
Spd
kts
Gust
kts
21/11:30pm 10.6 7.9 7.5 81 1.5 WSW 11 17 6 9 1015.1 1014.2 0.0
21/11:00pm 10.6 9.3 7.8 83 1.4 SE 4 7 2 4 1014.8 1013.9 0.0
21/10:30pm 11.6 9.8 8.1 79 1.8 SSW 7 9 4 5 1014.8 1013.9 0.0
21/10:00pm 13.2 10.6 7.6 69 2.8 W 11 15 6 8 1014.5 1013.6 0.0
21/09:30pm 12.3 10.0 7.6 73 2.3 W 9 11 5 6 1014.1 1013.2 0.0
21/09:00pm 13.4 11.5 7.4 67 3.0 W 7 13 4 7 1013.8 1012.9 0.0
21/08:30pm 14.4 12.2 7.7 64 3.4 WSW 9 13 5 7 1013.6 1012.7 0.0
21/08:00pm 15.6 13.5 8.4 62 3.7 WSW 9 13 5 7 1013.3 1012.4 0.0
21/07:30pm 15.7 13.5 8.0 60 4.0 W 9 15 5 8 1013.0 1012.1 0.0
21/07:00pm 16.8 13.4 7.7 55 4.7 WSW 15 20 8 11 1012.5 1011.5 0.0
21/06:30pm 16.6 12.7 7.3 54 4.8 WSW 17 22 9 12 1012.0 1011.1 0.0
21/06:00pm 18.5 14.9 8.2 51 5.4 SW 17 24 9 13 1011.9 1011.0 0.0
21/05:30pm 18.7 14.2 8.4 51 5.4 WNW 22 33 12 18 1011.8 1010.9 0.0
21/05:00pm 17.8 13.7 7.8 52 5.2 W 19 32 10 17 1011.8 1010.9 0.0
21/04:30pm 19.2 14.9 7.9 48 5.9 W 20 32 11 17 1011.6 1010.7 0.0
21/04:00pm 19.5 15.1 9.1 51 5.6 WSW 22 37 12 20 1011.6 1010.7 0.0
21/03:30pm 18.3 14.1 8.3 52 5.3 WSW 20 32 11 17 1011.4 1010.5 0.0
21/03:00pm 17.6 12.5 7.6 52 5.2 W 24 39 13 21 1011.3 1010.4 0.0
21/02:30pm 16.9 12.3 8.1 56 4.6 W 22 32 12 17 1011.1 1010.2 0.0
21/02:00pm 16.9 11.5 8.1 56 4.6 W 26 41 14 22 1011.0 1010.1 0.0
21/01:30pm 17.0 12.1 8.4 57 4.5 WSW 24 35 13 19 1010.8 1009.8 0.0
21/01:00pm 16.2 11.5 7.9 58 4.3 W 22 33 12 18 1010.7 1009.7 0.0
21/12:30pm 17.0 12.2 8.7 58 4.4 W 24 35 13 19 1010.6 1009.6 0.0
21/12:00pm 15.1 10.9 8.1 63 3.6 WNW 20 35 11 19 1010.5 1009.5 0.0
21/11:30am 14.8 10.6 8.3 65 3.3 W 20 33 11 18 1010.6 1009.6 0.0
21/11:00am 13.7 8.9 7.2 65 3.3 WNW 22 30 12 16 1010.3 1009.3 0.0
21/10:30am 14.4 10.1 7.7 64 3.4 WNW 20 30 11 16 1010.0 1009.1 0.0
21/10:00am 12.3 6.2 6.6 68 2.8 WNW 28 41 15 22 1010.2 1009.2 0.0
21/09:30am 13.4 9.1 7.8 69 2.8 W 20 30 11 16 1010.0 1009.1 0.0
21/09:00am 12.3 7.9 6.4 67 2.9 W 19 33 10 18 1009.8 1008.9 9.0
21/08:30am 12.1 9.1 7.6 74 2.2 W 13 20 7 11 1009.7 1008.8 9.0
21/08:00am 11.0 8.1 6.6 74 2.1 WSW 11 20 6 11 1009.3 1008.4 9.0
21/07:30am 9.7 6.3 5.7 76 1.9 W 13 22 7 12 1008.7 1007.7 9.0
21/07:00am 8.2 5.0 5.0 80 1.5 W 11 15 6 8 1008.2 1007.2 9.0
21/06:30am 7.0 4.0 4.3 83 1.2 W 9 13 5 7 1007.5 1006.6 9.0
21/06:00am 6.3 2.1 3.6 83 1.2 W 15 20 8 11 1007.3 1006.4 9.0
21/05:30am 7.1 3.0 4.2 82 1.3 W 15 20 8 11 1006.8 1005.8 9.0
21/05:00am 7.1 3.4 4.6 84 1.1 W 13 15 7 8 1006.6 1005.6 9.0
21/04:30am 6.5 2.3 4.0 84 1.1 WNW 15 20 8 11 1006.1 1005.1 9.0
21/04:00am 7.1 3.0 4.1 81 1.3 W 15 20 8 11 1005.8 1004.8 9.0
21/03:30am 7.6 4.7 4.9 83 1.2 W 9 15 5 8 1006.0 1005.0 9.0
21/03:00am 7.8 4.9 4.9 82 1.3 W 9 15 5 8 1006.1 1005.1 9.0
21/02:30am 7.8 4.2 4.9 82 1.3 SW 13 15 7 8 1006.1 1005.1 9.0
21/02:00am 7.2 3.8 4.2 81 1.3 SW 11 15 6 8 1005.6 1004.6 9.0
21/01:30am 8.0 4.4 4.8 80 1.5 SW 13 19 7 10 1005.4 1004.5 9.0
21/01:00am 8.7 4.1 5.4 80 1.5 WSW 19 24 10 13 1005.7 1004.7 9.0
21/12:30am 8.5 4.6 5.3 80 1.5 WSW 15 22 8 12 1005.3 1004.3 9.0
21/12:00am 8.2 4.3 5.3 82 1.3 WSW 15 24 8 13 1004.9 1003.9 9.0
 
Date/Time
EDT
Temp
°C
App
Temp
°C
Dew
Point
°C
Rel
Hum
%
Delta-T
°C
Wind Press
QNH
hPa
Press
MSL
hPa
Rain since
9am
mm
Dir  Spd
km/h
Gust
km/h
Spd
kts
Gust
kts
20/11:30pm 9.0 4.3 6.1 82 1.4 WSW 20 32 11 17 1004.7 1003.7 9.0
20/11:00pm 9.5 5.4 7.8 89 0.8 WSW 19 32 10 17 1004.4 1003.4 9.0
20/10:30pm 9.8 8.3 9.0 95 0.4 WSW 7 11 4 6 1003.9 1002.9 9.0
20/10:00pm 9.8 7.9 9.0 95 0.4 SW 9 15 5 8 1003.8 1002.8 9.0
20/09:30pm 9.9 8.0 9.1 95 0.4 SW 9 13 5 7 1003.1 1002.1 9.0
20/09:00pm 9.9 8.0 9.1 95 0.4 SSW 9 15 5 8 1002.7 1001.7 9.0
20/08:30pm 9.8 6.7 9.0 95 0.4 SSW 15 22 8 12 1002.9 1001.9 9.0
20/08:00pm 9.7 7.0 9.1 96 0.3 SSW 13 20 7 11 1002.0 1001.0 9.0
20/07:30pm 9.7 6.2 8.9 95 0.4 SSW 17 26 9 14 1001.8 1000.8 9.0
20/07:00pm 9.6 6.1 8.7 94 0.5 S 17 26 9 14 1001.6 1000.5 8.6
20/06:30pm 9.9 7.2 9.0 94 0.5 S 13 24 7 13 1000.8 999.8 8.4
20/06:00pm 10.3 6.9 9.1 92 0.6 SSW 17 24 9 13 1000.3 999.3 8.4
20/05:30pm 10.5 7.5 9.1 91 0.7 SSW 15 20 8 11 999.7 998.6 8.4
20/05:00pm 10.4 7.3 9.0 91 0.7 S 15 26 8 14 999.3 998.2 8.4
20/04:30pm 10.4 7.3 9.0 91 0.7 SSW 15 20 8 11 998.8 997.7 8.4
20/04:00pm 10.3 7.1 8.6 89 0.9 SSE 15 24 8 13 998.2 997.2 8.4
20/03:30pm 11.4 8.7 9.1 86 1.2 SSE 13 20 7 11 998.1 997.1 8.4
20/03:00pm 11.0 8.7 9.1 88 1.0 SSE 11 17 6 9 997.8 996.7 8.4
20/02:30pm 10.6 7.5 9.0 90 0.8 SSE 15 20 8 11 997.8 996.7 8.4
20/02:00pm 9.8 7.3 8.4 91 0.7 SSE 11 19 6 10 997.8 996.7 8.0
20/01:30pm 9.5 6.1 7.8 89 0.8 SE 15 20 8 11 997.6 996.5 7.6
20/01:00pm 9.3 4.2 7.6 89 0.8 ESE 24 33 13 18 997.2 996.1 7.6
20/12:30pm 10.1 5.3 8.7 91 0.7 SE 24 33 13 18 996.9 995.8 7.6
20/12:00pm 10.4 7.0 9.2 92 0.6 SE 17 28 9 15 996.8 995.7 7.4
20/11:30am 10.3 6.9 9.2 93 0.6 SE 17 20 9 11 996.8 995.7 7.0
20/11:00am 10.2 5.0 8.8 91 0.7 ESE 26 32 14 17 997.0 995.9 6.6
20/10:30am 10.5 6.8 9.4 93 0.6 ESE 19 26 10 14 997.3 996.2 6.2
20/10:00am 10.4 7.9 9.8 96 0.3 SSE 13 30 7 16 997.8 996.7 4.4
20/09:30am 10.1 8.3 9.5 96 0.3 S 9 13 5 7 998.0 997.0 1.6
20/09:00am 10.4 7.5 9.8 96 0.3 SE 15 22 8 12 998.4 997.4 13.2
20/08:30am 9.8 7.6 9.2 96 0.3 S 11 19 6 10 999.2 998.1 11.6
20/08:00am 9.5 6.4 8.9 96 0.3 S 15 20 8 11 999.0 997.9 10.0
20/07:30am 9.8 7.1 9.0 95 0.4 SSE 13 20 7 11 999.8 998.8 8.4
20/07:00am 9.6 7.2 8.8 95 0.4 SSW 11 15 6 8 999.9 998.9 6.0
20/06:30am 10.0 7.0 9.1 94 0.5 E 15 24 8 13 1000.1 999.1 2.6
20/06:00am 9.6 5.5 8.5 93 0.6 ENE 20 30 11 16 999.5 998.4 1.0
20/05:30am 9.5 5.7 7.6 88 0.9 ENE 17 26 9 14 1000.4 999.4 0.4
20/05:00am 10.3 6.3 6.5 77 1.8 ENE 17 26 9 14 1001.4 1000.3 0.0
20/04:30am 10.0 7.1 6.3 78 1.8 ENE 11 15 6 8 1003.0 1002.0 0.0
20/04:00am 9.8 6.9 6.5 80 1.6 ENE 11 17 6 9 1003.8 1002.8 0.0
20/03:30am 9.6 7.5 6.5 81 1.5 NE 7 11 4 6 1004.8 1003.8 0.0
20/03:00am 9.8 7.9 6.7 81 1.5 ENE 6 7 3 4 1005.2 1004.2 0.0
20/02:30am 9.9 7.4 6.6 80 1.6 NNE 9 13 5 7 1006.3 1005.3 0.0
20/02:00am 10.1 6.9 6.8 80 1.6 NNE 13 17 7 9 1006.2 1005.2 0.0
20/01:30am 9.9 7.0 6.6 80 1.6 NE 11 15 6 8 1005.7 1004.7 0.0
20/01:00am 10.1 7.2 6.6 79 1.7 NE 11 17 6 9 1006.2 1005.2 0.0
20/12:30am 10.1 6.8 6.3 77 1.8 NE 13 20 7 11 1006.8 1005.8 0.0
20/12:00am 10.0 6.2 6.0 76 1.9 ENE 15 24 8 13 1007.0 1006.0 0.0
 
Date/Time
EDT
Temp
°C
App
Temp
°C
Dew
Point
°C
Rel
Hum
%
Delta-T
°C
Wind Press
QNH
hPa
Press
MSL
hPa
Rain since
9am
mm
Dir  Spd
km/h
Gust
km/h
Spd
kts
Gust
kts
19/11:30pm 10.1 5.9 5.9 75 2.0 ENE 17 26 9 14 1007.2 1006.2 0.0
19/11:00pm 10.3 5.8 5.9 74 2.1 ENE 19 26 10 14 1008.1 1007.1 0.0
19/10:30pm 10.5 5.8 5.9 73 2.2 ENE 20 28 11 15 1008.8 1007.8 0.0
19/10:00pm 10.5 5.7 5.7 72 2.3 ENE 20 33 11 18 1009.0 1008.0 0.0
19/09:30pm 10.5 6.0 6.1 74 2.1 ENE 19 28 10 15 1009.5 1008.6 0.0
19/09:00pm 10.7 6.1 6.5 75 2.0 ENE 20 30 11 16 1009.7 1008.8 0.0
19/08:30pm 11.0 6.3 6.2 72 2.3 ENE 20 35 11 19 1010.4 1009.4 0.0
19/08:00pm 11.3 6.7 5.8 69 2.6 ENE 19 35 10 19 1010.9 1009.9 0.0
19/07:30pm 11.9 6.7 5.5 65 3.0 ENE 22 33 12 18 1011.1 1010.2 0.0

Other Formats:

Comma delimited format used in spreadsheet applications
http://www.bom.gov.au/fwo/IDT60801/IDT60801.94960.axf

JavaScript Object Notation format (JSON) in row-major order
http://www.bom.gov.au/fwo/IDT60801/IDT60801.94960.json